Time;durP1;ratioP1;P1;durP2;ratioP2;P2;SDS_P1;SDS_P2;PMS_P1;PMS_P2;Temp;Humidity;BMP_temperature;BMP_pressure;BME280_temperature;BME280_humidity;BME280_pressure;Samples;Min_cycle;Max_cycle;Signal;HPM_P1;HPM_P2
2024/01/18 00:01:13;;;;;;;27.17;13.63;;;21.60;99.90;;;;;;5009760;28;20049;-57
2024/01/18 00:03:42;;;;;;;22.30;11.68;;;21.60;99.90;;;;;;5010493;28;20048;-56
2024/01/18 00:06:08;;;;;;;28.92;12.50;;;21.60;99.90;;;;;;5011960;28;20022;-55
2024/01/18 00:08:34;;;;;;;24.88;12.48;;;21.60;99.90;;;;;;5010850;28;20038;-55
2024/01/18 00:11:03;;;;;;;22.73;12.38;;;21.60;99.90;;;;;;4999988;28;20121;-54
2024/01/18 00:13:28;;;;;;;23.67;12.20;;;21.50;99.90;;;;;;5011958;28;20801;-55
2024/01/18 00:15:54;;;;;;;23.13;11.98;;;21.60;99.90;;;;;;5010646;28;20022;-54
2024/01/18 00:18:20;;;;;;;25.35;12.80;;;21.60;99.90;;;;;;5010227;28;20097;-56
2024/01/18 00:20:46;;;;;;;20.23;12.50;;;21.60;99.90;;;;;;5001813;28;20041;-55
2024/01/18 00:23:11;;;;;;;20.17;12.07;;;21.60;99.90;;;;;;5011607;28;20088;-54
2024/01/18 00:25:37;;;;;;;19.98;12.30;;;21.60;99.90;;;;;;5004213;28;20026;-55
2024/01/18 00:28:03;;;;;;;20.58;11.13;;;21.50;99.90;;;;;;5009412;28;20570;-54
2024/01/18 00:30:29;;;;;;;22.88;11.80;;;21.50;99.90;;;;;;5011708;28;20141;-53
2024/01/18 00:32:55;;;;;;;24.00;10.45;;;21.50;99.90;;;;;;5011428;28;20125;-55
2024/01/18 00:35:21;;;;;;;24.55;11.57;;;21.50;99.90;;;;;;5012043;28;20121;-55
2024/01/18 00:37:46;;;;;;;23.50;12.18;;;21.50;99.90;;;;;;5009985;28;20425;-54
2024/01/18 00:40:14;;;;;;;23.90;12.75;;;21.50;99.90;;;;;;5006249;28;20037;-53
2024/01/18 00:42:39;;;;;;;24.35;13.70;;;21.60;99.90;;;;;;5010779;28;20107;-55
2024/01/18 00:45:06;;;;;;;28.83;13.70;;;21.50;99.90;;;;;;5001887;28;20553;-56
2024/01/18 00:47:32;;;;;;;22.40;12.82;;;21.50;99.90;;;;;;4999434;28;20036;-55
2024/01/18 00:49:58;;;;;;;23.45;12.88;;;21.50;99.90;;;;;;4996886;28;20390;-56
2024/01/18 00:52:24;;;;;;;20.20;11.85;;;21.50;99.90;;;;;;4997040;28;20018;-57
2024/01/18 00:54:50;;;;;;;20.83;12.52;;;21.50;99.90;;;;;;5015282;28;20092;-57
2024/01/18 00:57:15;;;;;;;22.33;12.48;;;21.50;99.90;;;;;;5013551;28;20092;-57
2024/01/18 00:59:41;;;;;;;25.55;12.85;;;21.50;99.90;;;;;;5012815;28;20125;-58
2024/01/18 01:02:08;;;;;;;20.95;12.75;;;21.50;99.90;;;;;;5007355;28;20054;-56
2024/01/18 01:04:34;;;;;;;22.80;12.93;;;21.50;99.90;;;;;;5014527;28;20022;-57
2024/01/18 01:07:00;;;;;;;21.00;12.55;;;21.50;99.90;;;;;;5013927;28;20109;-55
2024/01/18 01:09:25;;;;;;;25.67;12.52;;;21.40;99.90;;;;;;5014316;28;20096;-55
2024/01/18 01:11:52;;;;;;;26.20;13.38;;;21.40;99.90;;;;;;5014858;28;20458;-55
2024/01/18 01:14:18;;;;;;;37.38;14.05;;;21.40;99.90;;;;;;5014086;28;20034;-55
2024/01/18 01:16:44;;;;;;;25.02;12.68;;;21.40;99.90;;;;;;5000809;28;20046;-55
2024/01/18 01:19:10;;;;;;;23.17;12.40;;;21.40;99.90;;;;;;4992444;28;20030;-55
2024/01/18 01:21:35;;;;;;;23.35;12.13;;;21.40;99.90;;;;;;4995781;28;20030;-56
2024/01/18 01:24:02;;;;;;;22.48;12.70;;;21.40;99.90;;;;;;4995097;28;20391;-56
2024/01/18 01:26:29;;;;;;;24.27;11.93;;;21.30;99.90;;;;;;5003072;28;20022;-55
2024/01/18 01:28:54;;;;;;;19.50;11.73;;;21.40;99.90;;;;;;5003507;28;20049;-55
2024/01/18 01:31:20;;;;;;;20.30;11.93;;;21.30;99.90;;;;;;5002439;28;20103;-56
2024/01/18 01:33:47;;;;;;;22.77;12.93;;;21.30;99.90;;;;;;5007187;28;20045;-55
2024/01/18 01:36:13;;;;;;;26.05;12.10;;;21.30;99.90;;;;;;5014105;28;20026;-57
2024/01/18 01:38:39;;;;;;;28.58;12.07;;;21.30;99.90;;;;;;5003934;28;20104;-55
2024/01/18 01:41:05;;;;;;;19.92;11.73;;;21.30;99.90;;;;;;5007806;28;20081;-57
2024/01/18 01:43:31;;;;;;;27.95;13.07;;;21.30;99.90;;;;;;5010359;28;20033;-58
2024/01/18 01:45:57;;;;;;;24.95;11.60;;;21.30;99.90;;;;;;5013808;28;20013;-58
2024/01/18 01:48:23;;;;;;;19.70;11.00;;;21.30;99.90;;;;;;5014038;28;20084;-58
2024/01/18 01:50:49;;;;;;;21.58;11.45;;;21.30;99.90;;;;;;5012644;28;20025;-57
2024/01/18 01:53:17;;;;;;;23.80;12.32;;;21.30;99.90;;;;;;5013652;28;20356;-57
2024/01/18 01:55:43;;;;;;;24.85;11.60;;;21.30;99.90;;;;;;5011256;28;20023;-58
2024/01/18 01:58:12;;;;;;;19.15;11.98;;;21.30;99.90;;;;;;5013876;28;20032;-57
2024/01/18 02:00:39;;;;;;;21.05;12.60;;;21.30;99.90;;;;;;5008062;28;20112;-56
2024/01/18 02:03:05;;;;;;;20.13;10.60;;;21.30;99.90;;;;;;5005979;28;20409;-57
2024/01/18 02:05:31;;;;;;;24.52;11.57;;;21.20;99.90;;;;;;5013524;28;20101;-57
2024/01/18 02:07:56;;;;;;;20.80;11.18;;;21.20;99.90;;;;;;5012907;28;20367;-58
2024/01/18 02:10:23;;;;;;;21.65;11.15;;;21.30;99.90;;;;;;5013085;28;20029;-58
2024/01/18 02:12:52;;;;;;;20.83;11.05;;;21.20;99.90;;;;;;5012250;28;20394;-57
2024/01/18 02:15:19;;;;;;;22.98;11.75;;;21.20;99.90;;;;;;5001014;28;20478;-59
2024/01/18 02:17:45;;;;;;;21.13;10.83;;;21.20;99.90;;;;;;5011926;28;20467;-56
2024/01/18 02:20:11;;;;;;;21.20;11.68;;;21.20;99.90;;;;;;5013009;28;20322;-57
2024/01/18 02:22:42;;;;;;;18.20;10.60;;;21.20;99.90;;;;;;5011184;28;20050;-56
2024/01/18 02:25:22;;;;;;;20.48;10.57;;;21.20;99.90;;;;;;5013441;28;20018;-56
2024/01/18 02:27:48;;;;;;;22.63;11.88;;;21.20;99.90;;;;;;5009264;28;20026;-57
2024/01/18 02:30:14;;;;;;;17.98;9.95;;;21.20;99.90;;;;;;5006024;28;20030;-56
2024/01/18 02:32:40;;;;;;;27.17;10.57;;;21.20;99.90;;;;;;5010410;28;20025;-57
2024/01/18 02:35:06;;;;;;;18.70;11.02;;;21.20;99.90;;;;;;5011877;28;20496;-57
2024/01/18 02:37:33;;;;;;;18.33;10.07;;;21.20;99.90;;;;;;5011046;28;20029;-57
2024/01/18 02:39:59;;;;;;;22.08;10.20;;;21.20;99.90;;;;;;5001975;28;20129;-56
2024/01/18 02:42:25;;;;;;;19.75;10.50;;;21.20;99.90;;;;;;5012073;28;20018;-59
2024/01/18 02:44:52;;;;;;;21.30;10.65;;;21.20;99.90;;;;;;5009512;28;20044;-58
2024/01/18 02:47:18;;;;;;;16.88;9.95;;;21.20;99.90;;;;;;5009543;28;20148;-56
2024/01/18 02:49:44;;;;;;;18.92;10.35;;;21.10;99.90;;;;;;5013004;28;20112;-56
2024/01/18 02:52:10;;;;;;;19.73;9.73;;;21.10;99.90;;;;;;5011104;28;20555;-57
2024/01/18 02:54:35;;;;;;;24.30;10.73;;;21.10;99.90;;;;;;5011511;28;20030;-57
2024/01/18 02:57:01;;;;;;;17.23;10.00;;;21.10;99.90;;;;;;5012375;28;20033;-56
2024/01/18 02:59:27;;;;;;;16.60;9.45;;;21.10;99.90;;;;;;5011388;28;20029;-56
2024/01/18 03:01:53;;;;;;;19.08;9.85;;;21.10;99.90;;;;;;5011670;28;20050;-59
2024/01/18 03:04:19;;;;;;;15.57;9.68;;;21.10;99.90;;;;;;5012661;28;20113;-59
2024/01/18 03:06:45;;;;;;;16.20;9.30;;;21.10;99.90;;;;;;4998025;28;20089;-59
2024/01/18 03:09:12;;;;;;;19.88;10.13;;;21.10;99.90;;;;;;5011299;28;20037;-58
2024/01/18 03:11:38;;;;;;;19.25;10.73;;;21.10;99.90;;;;;;5012190;28;20026;-61
2024/01/18 03:14:04;;;;;;;15.43;9.90;;;21.10;99.90;;;;;;5012291;28;20037;-60
2024/01/18 03:16:29;;;;;;;19.65;9.98;;;21.10;99.90;;;;;;5012580;28;20029;-58
2024/01/18 03:18:55;;;;;;;22.00;10.15;;;21.10;99.90;;;;;;5012715;28;20033;-57
2024/01/18 03:21:21;;;;;;;22.02;11.15;;;21.10;99.90;;;;;;5012245;28;20049;-58
2024/01/18 03:23:47;;;;;;;19.02;9.25;;;21.10;99.90;;;;;;5012141;28;20421;-57
2024/01/18 03:26:13;;;;;;;19.42;10.05;;;21.10;99.90;;;;;;5011017;28;20025;-57
2024/01/18 03:28:38;;;;;;;19.75;10.13;;;21.10;99.90;;;;;;5011177;28;20034;-57
2024/01/18 03:31:04;;;;;;;19.10;9.98;;;21.10;99.90;;;;;;5012079;28;20470;-56
2024/01/18 03:33:30;;;;;;;17.65;10.10;;;21.10;99.90;;;;;;5012359;28;20379;-56
2024/01/18 03:35:57;;;;;;;17.08;8.98;;;21.10;99.90;;;;;;5011071;28;20447;-56
2024/01/18 03:38:22;;;;;;;15.63;8.57;;;21.00;99.90;;;;;;4994831;28;20113;-56
2024/01/18 03:40:48;;;;;;;18.48;10.32;;;21.00;99.90;;;;;;5006470;28;20101;-57
2024/01/18 03:43:14;;;;;;;14.50;9.90;;;21.00;99.90;;;;;;5010546;28;20036;-57
2024/01/18 03:45:40;;;;;;;15.15;9.10;;;21.00;99.90;;;;;;5011752;28;20029;-57
2024/01/18 03:48:06;;;;;;;15.10;8.52;;;21.00;99.90;;;;;;5012296;28;20462;-60
2024/01/18 03:50:31;;;;;;;16.25;9.48;;;21.00;99.90;;;;;;5007695;28;20494;-57
2024/01/18 03:52:57;;;;;;;16.73;8.93;;;21.00;99.90;;;;;;4994779;28;20026;-58
2024/01/18 03:55:23;;;;;;;18.02;9.70;;;21.00;99.90;;;;;;5009734;28;20038;-57
2024/01/18 03:57:48;;;;;;;15.88;9.38;;;21.00;99.90;;;;;;5011717;28;20033;-57
2024/01/18 04:00:15;;;;;;;15.93;9.13;;;21.00;99.90;;;;;;5010346;28;20029;-57
2024/01/18 04:02:41;;;;;;;18.20;10.20;;;21.00;99.90;;;;;;4997257;28;20050;-57
2024/01/18 04:05:07;;;;;;;18.88;10.10;;;21.00;99.90;;;;;;5007846;28;20021;-57
2024/01/18 04:07:33;;;;;;;19.92;10.05;;;21.00;99.90;;;;;;4999163;28;20463;-56
2024/01/18 04:09:59;;;;;;;16.45;9.23;;;21.00;99.90;;;;;;5011677;28;20129;-57
2024/01/18 04:12:25;;;;;;;18.83;9.63;;;20.90;99.90;;;;;;5009819;28;20029;-56
2024/01/18 04:14:51;;;;;;;16.27;8.93;;;20.90;99.90;;;;;;5014759;28;20034;-57
2024/01/18 04:17:16;;;;;;;19.65;8.55;;;20.90;99.90;;;;;;5016058;28;20026;-58
2024/01/18 04:19:42;;;;;;;17.40;9.52;;;20.90;99.90;;;;;;5014916;28;20030;-59
2024/01/18 04:22:08;;;;;;;17.95;9.65;;;20.90;99.90;;;;;;5014210;28;20046;-58
2024/01/18 04:24:34;;;;;;;17.73;10.00;;;20.90;99.90;;;;;;5013524;28;20026;-58
2024/01/18 04:27:00;;;;;;;18.13;9.30;;;20.90;99.90;;;;;;5015770;28;20036;-58
2024/01/18 04:29:27;;;;;;;17.65;9.82;;;20.90;99.90;;;;;;5015776;28;20370;-57
2024/01/18 04:31:53;;;;;;;;;;;20.90;99.90;;;;;;5014782;28;20121;-57
2024/01/18 04:34:19;;;;;;;17.33;9.63;;;20.90;99.90;;;;;;5015683;28;20004;-57
2024/01/18 04:36:44;;;;;;;20.92;10.05;;;20.80;99.90;;;;;;5016122;28;20373;-58
2024/01/18 04:39:11;;;;;;;17.42;9.30;;;20.80;99.90;;;;;;5015418;28;20080;-56
2024/01/18 04:41:37;;;;;;;15.43;9.45;;;20.80;99.90;;;;;;5013013;28;20030;-56
2024/01/18 04:44:03;;;;;;;17.48;9.75;;;20.80;99.90;;;;;;4995998;28;20032;-57
2024/01/18 04:46:30;;;;;;;17.17;8.98;;;20.80;99.90;;;;;;4995998;28;20374;-57
2024/01/18 04:48:56;;;;;;;17.00;9.40;;;20.80;99.90;;;;;;4995847;28;20026;-56
2024/01/18 04:51:22;;;;;;;20.30;9.95;;;20.80;99.90;;;;;;4995822;28;20034;-57
2024/01/18 04:53:48;;;;;;;15.82;9.75;;;20.80;99.90;;;;;;5013891;28;20025;-57
2024/01/18 04:56:14;;;;;;;14.43;9.05;;;20.70;99.90;;;;;;5015413;28;20022;-57
2024/01/18 04:58:40;;;;;;;17.50;9.00;;;20.70;99.90;;;;;;5015255;28;20026;-58
2024/01/18 05:01:06;;;;;;;13.25;8.20;;;20.70;99.90;;;;;;5014390;28;20462;-57
2024/01/18 05:03:31;;;;;;;20.70;9.23;;;20.70;99.90;;;;;;4998129;28;20038;-58
2024/01/18 05:05:57;;;;;;;16.85;8.57;;;20.70;99.90;;;;;;4995486;28;20018;-58
2024/01/18 05:08:24;;;;;;;15.60;9.65;;;20.70;99.90;;;;;;4994118;28;20117;-57
2024/01/18 05:10:50;;;;;;;16.27;9.48;;;20.70;99.90;;;;;;4995529;28;20556;-57
2024/01/18 05:13:15;;;;;;;14.88;10.35;;;20.70;99.90;;;;;;5010880;28;20141;-57
2024/01/18 05:15:41;;;;;;;19.55;8.93;;;20.70;99.90;;;;;;5014915;28;20026;-57
2024/01/18 05:18:08;;;;;;;16.25;8.25;;;20.70;99.90;;;;;;5001206;28;20124;-57
2024/01/18 05:20:34;;;;;;;17.48;9.18;;;20.70;99.90;;;;;;4995529;28;20029;-58
2024/01/18 05:22:59;;;;;;;17.33;8.98;;;20.70;99.90;;;;;;4995317;28;20022;-59
2024/01/18 05:25:26;;;;;;;16.05;9.70;;;20.70;99.90;;;;;;5009628;28;20068;-58
2024/01/18 05:27:51;;;;;;;15.40;9.25;;;20.70;99.90;;;;;;5014396;28;20497;-58
2024/01/18 05:30:17;;;;;;;14.93;8.60;;;20.70;99.90;;;;;;5014871;28;20112;-58
2024/01/18 05:32:43;;;;;;;15.25;8.85;;;20.70;99.90;;;;;;5014343;28;20105;-58
2024/01/18 05:35:09;;;;;;;15.85;8.57;;;20.60;99.90;;;;;;5014754;28;20088;-58
2024/01/18 05:37:35;;;;;;;20.80;10.23;;;20.60;99.90;;;;;;5014237;28;20056;-58
2024/01/18 05:40:00;;;;;;;17.65;9.90;;;20.60;99.90;;;;;;5014556;28;20018;-58
2024/01/18 05:42:27;;;;;;;14.40;8.57;;;20.60;99.90;;;;;;5014373;28;20022;-58
2024/01/18 05:44:53;;;;;;;14.43;8.48;;;20.60;99.90;;;;;;5014469;28;20084;-58
2024/01/18 05:47:22;;;;;;;16.80;8.23;;;20.60;99.90;;;;;;5010592;28;20093;-58
2024/01/18 05:49:48;;;;;;;16.23;8.32;;;20.60;99.90;;;;;;4995187;28;20448;-58
2024/01/18 05:52:14;;;;;;;16.58;8.65;;;20.60;99.90;;;;;;4993408;28;20018;-58
2024/01/18 05:54:41;;;;;;;18.85;9.30;;;20.60;99.90;;;;;;4994631;28;20100;-58
2024/01/18 05:57:07;;;;;;;17.30;8.00;;;20.60;99.90;;;;;;4996147;28;20061;-58
2024/01/18 05:59:34;;;;;;;16.40;8.90;;;20.60;99.90;;;;;;5014012;28;20446;-58
2024/01/18 06:01:59;;;;;;;12.93;7.72;;;20.60;99.90;;;;;;5007007;28;20446;-58
2024/01/18 06:04:25;;;;;;;15.13;8.40;;;20.50;99.90;;;;;;4993653;28;20080;-57
2024/01/18 06:06:52;;;;;;;14.75;7.55;;;20.60;99.90;;;;;;5009556;28;20072;-58
2024/01/18 06:09:18;;;;;;;14.95;8.82;;;20.50;99.90;;;;;;4995336;28;20117;-57
2024/01/18 06:11:45;;;;;;;15.45;8.18;;;20.50;99.90;;;;;;5012520;28;20036;-57
2024/01/18 06:14:11;;;;;;;15.60;7.93;;;20.50;99.90;;;;;;5013267;28;20092;-57
2024/01/18 06:16:38;;;;;;;16.70;8.38;;;20.50;99.90;;;;;;5013836;28;20114;-57
2024/01/18 06:19:04;;;;;;;13.30;6.78;;;20.50;99.90;;;;;;5012622;28;20026;-57
2024/01/18 06:21:30;;;;;;;16.00;8.10;;;20.50;99.90;;;;;;5013505;28;20061;-57
2024/01/18 06:23:55;;;;;;;16.58;7.47;;;20.50;99.90;;;;;;5013506;28;20068;-58
2024/01/18 06:26:21;;;;;;;16.15;6.60;;;20.50;99.90;;;;;;5013591;28;20026;-58
2024/01/18 06:28:47;;;;;;;17.75;8.13;;;20.40;99.90;;;;;;4998723;28;20049;-58
2024/01/18 06:31:13;;;;;;;15.48;8.02;;;20.40;99.90;;;;;;4998762;28;20088;-58
2024/01/18 06:33:39;;;;;;;14.05;7.90;;;20.40;99.90;;;;;;5013204;28;20053;-58
2024/01/18 06:36:08;;;;;;;13.40;7.97;;;20.40;99.90;;;;;;5013077;28;20470;-58
2024/01/18 06:38:34;;;;;;;13.13;7.22;;;20.40;99.90;;;;;;5013453;28;20339;-58
2024/01/18 06:41:01;;;;;;;16.00;8.75;;;20.40;99.90;;;;;;5007146;28;20026;-57
2024/01/18 06:43:27;;;;;;;18.08;8.35;;;20.40;99.90;;;;;;4996070;28;20566;-58
2024/01/18 06:45:55;;;;;;;17.38;8.77;;;20.40;99.90;;;;;;4997957;28;20093;-58
2024/01/18 06:48:24;;;;;;;17.02;7.40;;;20.40;99.90;;;;;;5012534;28;20038;-60
2024/01/18 06:50:53;;;;;;;14.73;6.78;;;20.40;99.90;;;;;;5013079;28;20026;-57
2024/01/18 06:53:19;;;;;;;16.55;8.40;;;20.40;99.90;;;;;;5013257;28;20093;-57
2024/01/18 06:55:45;;;;;;;16.38;7.55;;;20.40;99.90;;;;;;5010556;28;20033;-58
2024/01/18 06:58:11;;;;;;;15.38;7.47;;;20.30;99.90;;;;;;4993405;28;20026;-58
2024/01/18 07:00:37;;;;;;;19.90;7.78;;;20.30;99.90;;;;;;4994538;28;20488;-57
2024/01/18 07:03:03;;;;;;;12.98;6.57;;;20.30;99.90;;;;;;4996350;28;20049;-58
2024/01/18 07:05:29;;;;;;;14.10;7.28;;;20.30;99.90;;;;;;5012871;28;20402;-56
2024/01/18 07:07:54;;;;;;;16.35;6.90;;;20.30;99.90;;;;;;5012538;28;20041;-57
2024/01/18 07:10:23;;;;;;;14.35;7.53;;;20.30;99.90;;;;;;5011119;28;20037;-57
2024/01/18 07:12:48;;;;;;;15.63;7.68;;;20.30;99.90;;;;;;5000314;28;20085;-58
2024/01/18 07:15:15;;;;;;;15.07;7.47;;;20.30;99.90;;;;;;5003173;28;20026;-57
2024/01/18 07:17:41;;;;;;;14.43;8.15;;;20.30;99.90;;;;;;4992906;28;20533;-58
2024/01/18 07:20:08;;;;;;;12.05;7.88;;;20.30;99.90;;;;;;4997952;28;20061;-57
2024/01/18 07:22:33;;;;;;;14.60;8.00;;;20.30;99.90;;;;;;5012564;28;20028;-58
2024/01/18 07:24:59;;;;;;;18.65;8.57;;;20.30;99.90;;;;;;5011045;28;20034;-58
2024/01/18 07:27:25;;;;;;;14.15;7.88;;;20.30;99.90;;;;;;5012572;28;20026;-57
2024/01/18 07:29:51;;;;;;;16.40;8.40;;;20.30;99.90;;;;;;5010728;28;20476;-57
2024/01/18 07:32:17;;;;;;;17.65;8.90;;;20.30;99.90;;;;;;5012449;28;20026;-57
2024/01/18 07:34:44;;;;;;;15.82;7.75;;;20.30;99.90;;;;;;5011271;28;20084;-57
2024/01/18 07:37:13;;;;;;;15.85;7.35;;;20.30;99.90;;;;;;5012506;28;20030;-57
2024/01/18 07:39:40;;;;;;;18.50;8.32;;;20.30;99.90;;;;;;4999257;28;20037;-57
2024/01/18 07:42:07;;;;;;;13.30;7.70;;;20.30;99.90;;;;;;4992634;28;20022;-57
2024/01/18 07:44:33;;;;;;;13.98;7.40;;;20.30;99.90;;;;;;4992762;28;20540;-58
2024/01/18 07:46:59;;;;;;;14.50;7.53;;;20.30;99.90;;;;;;4991390;28;20053;-57
2024/01/18 07:49:24;;;;;;;16.63;7.82;;;20.30;99.90;;;;;;5006667;28;20030;-57
2024/01/18 07:51:50;;;;;;;13.15;7.50;;;20.30;99.90;;;;;;5005950;28;20076;-57
2024/01/18 07:54:16;;;;;;;14.10;8.38;;;20.30;99.90;;;;;;5011915;28;20038;-57
2024/01/18 07:56:42;;;;;;;15.15;7.72;;;20.30;99.90;;;;;;5011017;28;20040;-57
2024/01/18 07:59:09;;;;;;;12.20;7.53;;;20.30;99.90;;;;;;5012255;28;20474;-57
2024/01/18 08:01:34;;;;;;;14.50;7.55;;;20.30;99.90;;;;;;4999688;28;20042;-57
2024/01/18 08:04:00;;;;;;;13.77;7.10;;;20.30;99.90;;;;;;4991280;28;20037;-57
2024/01/18 08:06:26;;;;;;;13.07;7.95;;;20.30;99.90;;;;;;4992588;28;20026;-58
2024/01/18 08:08:52;;;;;;;16.55;8.52;;;20.30;99.90;;;;;;4993490;28;20042;-57
2024/01/18 08:11:17;;;;;;;11.73;7.53;;;20.30;99.90;;;;;;4991162;28;20437;-58
2024/01/18 08:13:43;;;;;;;13.02;7.40;;;20.30;99.90;;;;;;4991269;28;20026;-57
2024/01/18 08:16:10;;;;;;;15.55;7.65;;;20.30;99.90;;;;;;4992651;28;20532;-57
2024/01/18 08:18:36;;;;;;;11.02;6.90;;;20.40;99.90;;;;;;4992372;28;20486;-57
2024/01/18 08:21:03;;;;;;;18.10;8.32;;;20.40;99.90;;;;;;5004986;28;20084;-57
2024/01/18 08:23:29;;;;;;;14.03;6.87;;;20.30;99.90;;;;;;5011259;28;20030;-57
2024/01/18 08:25:55;;;;;;;12.65;7.65;;;20.40;99.90;;;;;;5012098;28;20271;-57
2024/01/18 08:28:22;;;;;;;12.73;8.05;;;20.40;99.90;;;;;;5011858;28;20065;-56
2024/01/18 08:30:48;;;;;;;12.13;7.20;;;20.40;99.90;;;;;;5010205;28;20034;-56
2024/01/18 08:33:14;;;;;;;11.93;7.63;;;20.40;99.90;;;;;;5011874;28;20076;-57
2024/01/18 08:35:40;;;;;;;14.30;8.10;;;20.40;99.90;;;;;;5011893;28;20061;-57
2024/01/18 08:38:06;;;;;;;14.18;7.10;;;20.40;99.90;;;;;;5010461;28;20073;-56
2024/01/18 08:40:33;;;;;;;12.65;7.90;;;20.50;99.90;;;;;;5010164;28;20180;-56
2024/01/18 08:42:59;;;;;;;10.77;6.63;;;20.50;99.90;;;;;;5010087;28;20062;-56
2024/01/18 08:45:26;;;;;;;13.38;7.95;;;20.50;99.90;;;;;;4999412;28;20073;-56
2024/01/18 08:47:52;;;;;;;12.25;7.00;;;20.50;99.90;;;;;;4996860;28;20034;-56
2024/01/18 08:50:19;;;;;;;13.02;7.53;;;20.50;99.90;;;;;;5008445;28;20034;-55
2024/01/18 08:52:45;;;;;;;12.53;7.13;;;20.50;99.90;;;;;;5008609;28;20360;-57
2024/01/18 08:55:11;;;;;;;12.25;6.90;;;20.60;99.90;;;;;;5011474;28;20113;-57
2024/01/18 08:57:36;;;;;;;13.82;7.30;;;20.60;99.90;;;;;;5006232;28;20430;-58
2024/01/18 09:00:03;;;;;;;14.05;6.45;;;20.60;99.90;;;;;;4994470;28;20073;-57
2024/01/18 09:02:30;;;;;;;13.73;6.78;;;20.60;99.90;;;;;;4995681;28;20141;-57
2024/01/18 09:04:56;;;;;;;13.27;6.63;;;20.60;99.90;;;;;;5002162;28;20022;-55
2024/01/18 09:07:23;;;;;;;14.35;7.20;;;20.60;99.90;;;;;;5015084;28;20022;-55
2024/01/18 09:09:49;;;;;;;15.65;7.05;;;20.60;99.90;;;;;;5013723;28;20125;-57
2024/01/18 09:12:15;;;;;;;13.45;6.90;;;20.70;99.90;;;;;;5013403;28;20117;-56
2024/01/18 09:14:45;;;;;;;15.93;7.18;;;20.70;99.90;;;;;;5014508;28;20489;-57
2024/01/18 09:17:11;;;;;;;14.15;6.25;;;20.60;99.90;;;;;;5013488;28;20022;-55
2024/01/18 09:19:36;;;;;;;13.55;7.00;;;20.70;99.90;;;;;;5014813;28;20014;-55
2024/01/18 09:22:02;;;;;;;11.80;6.10;;;20.70;99.90;;;;;;5002765;28;20041;-55
2024/01/18 09:24:28;;;;;;;16.15;6.85;;;20.70;99.90;;;;;;5005181;28;20026;-55
2024/01/18 09:26:54;;;;;;;12.20;6.63;;;20.70;99.90;;;;;;4995118;28;20056;-55
2024/01/18 09:29:20;;;;;;;13.30;7.03;;;20.70;99.90;;;;;;4994787;28;20100;-55
2024/01/18 09:31:46;;;;;;;15.43;6.53;;;20.70;99.90;;;;;;4994823;28;20076;-56
2024/01/18 09:34:12;;;;;;;12.90;7.22;;;20.70;99.90;;;;;;4996695;28;20497;-55
2024/01/18 09:36:37;;;;;;;15.80;6.65;;;20.80;99.90;;;;;;5013234;28;20022;-55
2024/01/18 09:39:15;;;;;;;13.90;6.55;;;20.80;99.90;;;;;;5014465;28;20101;-55
2024/01/18 09:41:42;;;;;;;11.23;6.28;;;20.80;99.90;;;;;;5012152;28;20335;-55
2024/01/18 09:44:11;;;;;;;16.70;7.50;;;20.80;99.90;;;;;;4994910;28;20027;-55
2024/01/18 09:46:38;;;;;;;11.38;5.90;;;20.80;99.90;;;;;;4993320;28;20487;-55
2024/01/18 09:49:07;;;;;;;14.73;7.07;;;20.80;99.90;;;;;;4993272;28;20125;-55
2024/01/18 09:51:33;;;;;;;12.43;6.50;;;20.80;99.90;;;;;;5010474;28;20029;-56
2024/01/18 09:54:00;;;;;;;12.02;6.60;;;20.90;99.90;;;;;;5009825;28;20125;-56
2024/01/18 09:56:28;;;;;;;11.93;6.32;;;20.80;99.90;;;;;;5014198;28;20030;-57
2024/01/18 09:58:54;;;;;;;17.58;6.72;;;20.90;99.90;;;;;;4995376;28;20399;-56
2024/01/18 10:01:22;;;;;;;15.93;7.05;;;20.90;99.90;;;;;;4994289;28;20117;-56
2024/01/18 10:03:49;;;;;;;17.08;7.28;;;20.90;99.90;;;;;;4994569;28;20038;-56
2024/01/18 10:06:18;;;;;;;14.43;7.10;;;20.90;99.90;;;;;;4994364;28;20025;-56
2024/01/18 10:08:49;;;;;;;15.30;7.90;;;20.90;99.90;;;;;;4994099;28;20045;-55
2024/01/18 10:11:15;;;;;;;14.90;7.53;;;20.90;99.90;;;;;;4993483;28;20054;-56
2024/01/18 10:14:07;;;;;;;11.20;7.47;;;20.90;99.90;;;;;;5007534;28;20508;-56
2024/01/18 10:16:36;;;;;;;15.70;7.68;;;21.00;99.90;;;;;;5012102;28;20050;-56
2024/01/18 10:19:05;;;;;;;19.88;9.05;;;21.00;99.90;;;;;;5013323;28;20076;-56
2024/01/18 10:21:33;;;;;;;16.10;7.70;;;21.00;99.90;;;;;;5009115;28;20018;-56
2024/01/18 10:24:00;;;;;;;15.60;9.05;;;21.00;99.90;;;;;;4994347;28;20363;-56
2024/01/18 10:26:33;;;;;;;16.20;7.72;;;21.00;99.90;;;;;;4994023;28;20106;-56
2024/01/18 10:28:58;;;;;;;19.50;8.10;;;21.10;99.90;;;;;;4994261;28;20042;-56
2024/01/18 10:31:25;;;;;;;15.10;8.23;;;21.10;99.90;;;;;;4994838;28;20364;-55
2024/01/18 10:33:51;;;;;;;15.20;8.90;;;21.10;99.90;;;;;;5008187;28;20037;-56
2024/01/18 10:36:18;;;;;;;18.58;10.25;;;21.10;99.90;;;;;;5000098;28;20019;-56
2024/01/18 10:38:44;;;;;;;21.27;11.57;;;21.10;99.90;;;;;;4995845;28;20045;-56
2024/01/18 10:41:11;;;;;;;25.52;12.30;;;21.20;99.90;;;;;;5001603;28;20478;-56
2024/01/18 10:43:37;;;;;;;21.77;11.40;;;21.20;99.90;;;;;;5009608;28;20026;-56
2024/01/18 10:46:04;;;;;;;21.02;11.70;;;21.10;99.90;;;;;;5009094;28;20025;-56
2024/01/18 10:48:32;;;;;;;22.92;12.48;;;21.20;99.90;;;;;;5006398;28;20053;-56
2024/01/18 10:50:59;;;;;;;22.65;13.20;;;21.20;99.90;;;;;;4994650;28;20030;-56
2024/01/18 10:53:33;;;;;;;25.55;12.55;;;21.20;99.90;;;;;;5007912;28;20081;-56
2024/01/18 10:56:00;;;;;;;26.17;13.18;;;21.20;99.90;;;;;;5009082;28;20522;-56
2024/01/18 10:58:26;;;;;;;26.17;15.15;;;21.20;99.90;;;;;;4993460;28;20033;-56
2024/01/18 11:00:54;;;;;;;24.33;13.93;;;21.20;99.90;;;;;;4993169;28;20022;-54
2024/01/18 11:03:20;;;;;;;;;;;21.20;99.90;;;;;;4993294;28;20553;-56
2024/01/18 11:05:47;;;;;;;25.48;15.40;;;21.20;99.90;;;;;;5001563;28;19910;-56
2024/01/18 11:08:13;;;;;;;25.90;14.80;;;21.20;99.90;;;;;;5001263;28;20043;-56
2024/01/18 11:10:44;;;;;;;28.75;15.43;;;21.30;99.90;;;;;;4996354;28;20268;-57
2024/01/18 11:13:12;;;;;;;32.38;16.85;;;21.30;99.90;;;;;;5004602;28;20435;-57
2024/01/18 11:15:41;;;;;;;30.23;15.55;;;21.30;99.90;;;;;;4991822;28;20426;-56
2024/01/18 11:18:12;;;;;;;30.48;15.38;;;21.30;99.90;;;;;;5006389;28;20470;-58
2024/01/18 11:20:59;;;;;;;25.58;14.90;;;21.30;99.90;;;;;;5012071;28;20029;-58
2024/01/18 11:23:36;;;;;;;26.60;13.23;;;21.40;99.90;;;;;;5012496;28;20026;-58
2024/01/18 11:26:04;;;;;;;26.98;13.85;;;21.40;99.90;;;;;;5006799;28;20026;-58
2024/01/18 11:28:31;;;;;;;28.63;15.50;;;21.40;99.90;;;;;;5007826;28;20072;-56
2024/01/18 11:30:57;;;;;;;26.85;14.60;;;21.50;99.90;;;;;;5011942;28;20036;-57
2024/01/18 11:33:24;;;;;;;28.92;14.70;;;21.50;99.90;;;;;;5006638;28;20042;-57
2024/01/18 11:35:50;;;;;;;27.15;14.05;;;21.50;99.90;;;;;;5007735;28;20034;-57
2024/01/18 11:38:32;;;;;;;21.88;12.13;;;21.50;99.90;;;;;;5007412;28;20387;-57
2024/01/18 11:41:03;;;;;;;27.13;13.23;;;21.60;99.90;;;;;;4997469;28;20391;-57
2024/01/18 11:43:54;;;;;;;21.23;12.48;;;21.60;99.90;;;;;;4994244;28;20113;-57
2024/01/18 11:46:41;;;;;;;18.48;9.85;;;21.60;99.90;;;;;;5007952;28;20100;-56
2024/01/18 11:49:08;;;;;;;17.63;9.80;;;21.70;99.90;;;;;;5011500;28;20046;-57
2024/01/18 11:51:35;;;;;;;20.13;10.45;;;21.70;99.90;;;;;;5009558;28;20318;-56
2024/01/18 11:54:02;;;;;;;20.88;10.25;;;21.70;99.90;;;;;;5000729;28;20470;-55
2024/01/18 11:56:28;;;;;;;18.33;9.38;;;21.70;99.90;;;;;;5012204;28;20033;-49
2024/01/18 11:58:58;;;;;;;22.38;9.38;;;21.70;99.90;;;;;;5000408;28;20110;-52
2024/01/18 12:01:24;;;;;;;20.15;8.18;;;21.80;99.90;;;;;;4990938;28;20038;-49
2024/01/18 12:03:52;;;;;;;14.73;7.32;;;21.80;99.90;;;;;;4992467;28;20030;-50
2024/01/18 12:06:19;;;;;;;20.67;8.20;;;21.80;99.90;;;;;;4992437;28;20029;-52
2024/01/18 12:08:45;;;;;;;18.35;7.68;;;21.80;99.90;;;;;;5002628;28;20128;-54
2024/01/18 12:11:12;;;;;;;18.48;7.03;;;21.80;99.90;;;;;;4999089;28;20109;-54
2024/01/18 12:13:38;;;;;;;19.42;7.47;;;21.80;99.90;;;;;;4992504;28;20438;-54
2024/01/18 12:16:05;;;;;;;19.13;7.93;;;21.80;99.90;;;;;;4991260;28;20094;-54
2024/01/18 12:18:43;;;;;;;15.17;7.10;;;21.80;99.90;;;;;;4993550;28;20544;-54
2024/01/18 12:21:10;;;;;;;19.15;7.78;;;21.80;99.90;;;;;;5006162;28;20278;-53
2024/01/18 12:23:36;;;;;;;16.63;7.10;;;21.80;99.90;;;;;;5012308;28;20026;-54
2024/01/18 12:26:03;;;;;;;21.17;9.27;;;21.80;99.90;;;;;;5001592;28;20104;-54
2024/01/18 12:28:29;;;;;;;16.60;8.27;;;21.80;99.90;;;;;;4990877;28;20042;-54
2024/01/18 12:31:01;;;;;;;17.42;8.05;;;21.80;99.90;;;;;;4993406;28;20080;-54